createdAt,value
2019-03-31T00:06:40.887Z,4.09
2019-03-31T00:16:46.051Z,3.47
2019-03-31T00:26:51.233Z,3.50
2019-03-31T00:36:56.464Z,2.81
2019-03-31T00:47:02.339Z,3.00
2019-03-31T00:57:07.663Z,2.91
2019-03-31T01:07:13.342Z,2.61
2019-03-31T01:17:19.256Z,2.77
2019-03-31T01:27:24.730Z,2.49
2019-03-31T01:37:30.309Z,2.57
2019-03-31T01:47:35.618Z,2.53
2019-03-31T01:57:40.990Z,2.51
2019-03-31T02:07:46.305Z,2.62
2019-03-31T02:17:51.525Z,2.23
2019-03-31T02:27:56.922Z,2.05
2019-03-31T02:38:02.539Z,1.84
2019-03-31T02:48:08.154Z,2.23
2019-03-31T02:58:14.723Z,1.97
2019-03-31T03:08:20.909Z,1.58
2019-03-31T03:18:26.360Z,1.81
2019-03-31T03:28:31.653Z,1.40
2019-03-31T03:38:36.967Z,1.32
2019-03-31T03:48:42.442Z,1.18
2019-03-31T03:58:47.765Z,1.25
2019-03-31T04:08:53.049Z,1.23
2019-03-31T04:18:58.723Z,1.20
2019-03-31T04:29:04.210Z,1.39
2019-03-31T04:39:09.332Z,1.39
2019-03-31T04:49:14.680Z,1.20
2019-03-31T04:59:19.936Z,1.27
2019-03-31T05:09:25.401Z,2.21
2019-03-31T05:19:30.865Z,3.60
2019-03-31T05:29:36.227Z,5.29
2019-03-31T05:39:42.603Z,5.25
2019-03-31T05:49:47.781Z,4.89
2019-03-31T05:59:54.172Z,6.24
2019-03-31T06:09:59.563Z,6.79
2019-03-31T06:20:06.920Z,8.37
2019-03-31T06:30:12.489Z,10.54
2019-03-31T06:40:17.873Z,10.43
2019-03-31T06:50:23.279Z,12.58
2019-03-31T07:00:28.582Z,15.92
2019-03-31T07:10:33.859Z,16.17
2019-03-31T07:20:39.124Z,14.20
2019-03-31T07:30:44.401Z,19.04
2019-03-31T07:40:49.906Z,18.70
2019-03-31T07:50:55.475Z,18.60
2019-03-31T08:01:00.864Z,20.83
2019-03-31T08:11:06.191Z,22.07
2019-03-31T08:21:11.662Z,22.65
2019-03-31T08:31:17.148Z,22.51
2019-03-31T08:41:23.361Z,21.74
2019-03-31T08:51:28.586Z,23.53
2019-03-31T09:01:33.987Z,24.79
2019-03-31T09:11:39.336Z,25.69
2019-03-31T09:21:45.440Z,22.23
2019-03-31T09:31:51.985Z,25.09
2019-03-31T09:41:57.759Z,25.42
2019-03-31T09:52:03.335Z,27.41
2019-03-31T10:02:08.788Z,26.33
2019-03-31T10:12:14.456Z,25.66
2019-03-31T10:22:19.756Z,27.12
2019-03-31T10:32:24.984Z,27.22
2019-03-31T10:42:30.461Z,23.35
2019-03-31T10:52:35.695Z,24.45
2019-03-31T11:02:41.327Z,25.00
2019-03-31T11:12:47.013Z,25.74
2019-03-31T11:23:09.151Z,25.02
2019-03-31T11:33:14.644Z,25.34
2019-03-31T11:43:21.397Z,24.36
2019-03-31T11:53:26.834Z,24.98
2019-03-31T12:03:32.563Z,22.32
2019-03-31T12:13:37.966Z,19.56
2019-03-31T12:23:43.481Z,19.86
2019-03-31T12:33:49.313Z,20.08
2019-03-31T12:43:55.412Z,20.86
2019-03-31T12:54:01.241Z,21.75
2019-03-31T13:04:06.683Z,20.85
2019-03-31T13:14:12.594Z,20.33
2019-03-31T13:24:18.474Z,18.33
2019-03-31T13:34:24.121Z,19.92
2019-03-31T13:44:29.923Z,19.30
2019-03-31T13:54:35.766Z,18.30
2019-03-31T14:04:51.486Z,18.40
2019-03-31T14:14:48.999Z,18.28
2019-03-31T14:24:54.607Z,16.72
2019-03-31T14:35:00.714Z,17.39
2019-03-31T14:45:08.168Z,16.81
2019-03-31T14:55:14.272Z,15.73
2019-03-31T15:05:20.171Z,15.40
2019-03-31T15:15:26.204Z,15.28
2019-03-31T15:25:32.164Z,14.84
2019-03-31T15:35:38.244Z,14.33
2019-03-31T15:45:44.083Z,13.96
2019-03-31T15:55:50.147Z,13.91
2019-03-31T16:05:56.490Z,13.59
2019-03-31T16:16:02.300Z,12.79
2019-03-31T16:26:07.965Z,12.26
2019-03-31T16:36:13.782Z,11.92
2019-03-31T16:46:19.947Z,11.72
2019-03-31T16:56:25.883Z,11.48
2019-03-31T17:06:31.746Z,11.26
2019-03-31T17:16:37.641Z,11.12
2019-03-31T17:26:43.602Z,10.86
2019-03-31T17:36:49.636Z,10.66
2019-03-31T17:46:55.482Z,10.31
2019-03-31T17:57:01.431Z,10.07
2019-03-31T18:07:06.924Z,9.88
2019-03-31T18:17:13.687Z,9.54
2019-03-31T18:27:19.605Z,9.46
2019-03-31T18:37:25.686Z,9.38
2019-03-31T18:47:31.726Z,9.00
2019-03-31T18:57:39.108Z,8.86
2019-03-31T19:08:03.027Z,8.67
2019-03-31T19:18:11.470Z,8.59
2019-03-31T19:28:20.083Z,8.38
2019-03-31T19:38:44.424Z,8.24
2019-03-31T19:48:55.004Z,8.11
2019-03-31T19:59:08.535Z,7.87
2019-03-31T20:09:16.995Z,7.68
2019-03-31T20:19:42.707Z,7.41
2019-03-31T20:29:56.252Z,7.41
2019-03-31T20:40:20.053Z,7.08
2019-03-31T20:50:26.173Z,6.94
2019-03-31T21:00:31.972Z,7.02
2019-03-31T21:10:37.657Z,6.65
2019-03-31T21:20:43.405Z,6.78
2019-03-31T21:30:49.203Z,6.36
2019-03-31T21:40:54.612Z,6.08
2019-03-31T21:51:00.250Z,6.13
2019-03-31T22:01:06.196Z,5.77
2019-03-31T22:11:12.219Z,5.34
2019-03-31T22:21:17.759Z,5.46
2019-03-31T22:31:23.439Z,5.14
2019-03-31T22:41:28.984Z,5.05
2019-03-31T22:51:34.446Z,5.03
2019-03-31T23:01:39.799Z,4.89
2019-03-31T23:11:45.581Z,4.72
2019-03-31T23:21:51.200Z,4.41
2019-03-31T23:31:56.676Z,4.28
2019-03-31T23:42:02.274Z,4.28
2019-03-31T23:52:07.610Z,4.15
